sensor_id;sensor_type;location;lat;lon;timestamp;pressure;altitude;pressure_sealevel;temperature;humidity
13954;BME280;7049;49.444;8.522;2022-07-18T00:03:20;77311.72;;;-3.47;35.11
13954;BME280;7049;49.444;8.522;2022-07-18T00:08:21;77315.91;;;-3.47;35.08
13954;BME280;7049;49.444;8.522;2022-07-18T00:13:23;77326.38;;;-3.47;35.14
13954;BME280;7049;49.444;8.522;2022-07-18T00:18:26;77343.13;;;-3.47;35.38
13954;BME280;7049;49.444;8.522;2022-07-18T00:23:27;77357.75;;;-3.47;35.57
13954;BME280;7049;49.444;8.522;2022-07-18T00:28:29;77366.13;;;-3.47;35.59
13954;BME280;7049;49.444;8.522;2022-07-18T00:33:32;77368.22;;;-3.47;35.75
13954;BME280;7049;49.444;8.522;2022-07-18T00:38:33;77380.78;;;-3.47;35.45
13954;BME280;7049;49.444;8.522;2022-07-18T00:43:35;77384.97;;;-3.47;36.12
13954;BME280;7049;49.444;8.522;2022-07-18T00:48:38;77395.41;;;-3.47;36.06
13954;BME280;7049;49.444;8.522;2022-07-18T00:53:39;77403.78;;;-3.47;36.20
13954;BME280;7049;49.444;8.522;2022-07-18T00:58:42;77416.34;;;-3.47;35.99
13954;BME280;7049;49.444;8.522;2022-07-18T01:03:45;77424.72;;;-3.47;36.24
13954;BME280;7049;49.444;8.522;2022-07-18T01:08:46;77426.81;;;-3.47;36.69
13954;BME280;7049;49.444;8.522;2022-07-18T01:13:48;77435.16;;;-3.47;37.01
13954;BME280;7049;49.444;8.522;2022-07-18T01:18:51;77449.81;;;-3.47;37.43
13954;BME280;7049;49.444;8.522;2022-07-18T01:23:54;77458.19;;;-3.47;37.18
13954;BME280;7049;49.444;8.522;2022-07-18T01:28:56;77466.56;;;-3.47;37.13
13954;BME280;7049;49.444;8.522;2022-07-18T01:33:57;77483.28;;;-3.47;37.45
13954;BME280;7049;49.444;8.522;2022-07-18T01:39:00;77495.84;;;-3.47;37.84
13954;BME280;7049;49.444;8.522;2022-07-18T01:44:02;77510.50;;;-3.47;38.27
13954;BME280;7049;49.444;8.522;2022-07-18T01:49:04;77510.50;;;-3.47;38.30
13954;BME280;7049;49.444;8.522;2022-07-18T01:54:06;77518.84;;;-3.47;38.75
13954;BME280;7049;49.444;8.522;2022-07-18T01:59:08;77527.22;;;-3.47;38.66
13954;BME280;7049;49.444;8.522;2022-07-18T02:04:09;77533.50;;;-3.47;38.83
13954;BME280;7049;49.444;8.522;2022-07-18T02:09:12;77537.69;;;-3.47;39.04
13954;BME280;7049;49.444;8.522;2022-07-18T02:14:14;77546.06;;;-3.47;39.69
13954;BME280;7049;49.444;8.522;2022-07-18T02:19:15;77550.25;;;-3.47;39.88
13954;BME280;7049;49.444;8.522;2022-07-18T02:24:18;77562.81;;;-3.47;40.39
13954;BME280;7049;49.444;8.522;2022-07-18T02:29:19;77562.81;;;-3.47;40.72
13954;BME280;7049;49.444;8.522;2022-07-18T02:34:21;77577.44;;;-3.47;40.89
13954;BME280;7049;49.444;8.522;2022-07-18T02:39:24;77579.53;;;-3.47;41.14
13954;BME280;7049;49.444;8.522;2022-07-18T02:44:25;77585.81;;;-3.47;40.98
13954;BME280;7049;49.444;8.522;2022-07-18T02:49:27;77587.91;;;-3.47;41.36
13954;BME280;7049;49.444;8.522;2022-07-18T02:54:31;77594.19;;;-3.47;41.54
13954;BME280;7049;49.444;8.522;2022-07-18T02:59:33;77596.28;;;-3.47;41.93
13954;BME280;7049;49.444;8.522;2022-07-18T03:04:34;77606.75;;;-3.47;42.13
13954;BME280;7049;49.444;8.522;2022-07-18T03:09:37;77610.91;;;-3.47;42.18
13954;BME280;7049;49.444;8.522;2022-07-18T03:14:39;77617.19;;;-3.47;41.88
13954;BME280;7049;49.444;8.522;2022-07-18T03:19:41;77629.75;;;-3.47;42.13
13954;BME280;7049;49.444;8.522;2022-07-18T03:24:43;77636.03;;;-3.47;42.41
13954;BME280;7049;49.444;8.522;2022-07-18T03:29:45;77638.13;;;-3.47;43.19
13954;BME280;7049;49.444;8.522;2022-07-18T03:34:46;77646.50;;;-3.47;43.93
13954;BME280;7049;49.444;8.522;2022-07-18T03:39:49;77652.78;;;-3.47;43.84
13954;BME280;7049;49.444;8.522;2022-07-18T03:44:51;77663.22;;;-3.47;43.08
13954;BME280;7049;49.444;8.522;2022-07-18T03:49:52;77675.78;;;-3.47;43.10
13954;BME280;7049;49.444;8.522;2022-07-18T03:54:55;77673.69;;;-3.47;43.50
13954;BME280;7049;49.444;8.522;2022-07-18T03:59:56;77682.06;;;-3.47;43.93
13954;BME280;7049;49.444;8.522;2022-07-18T04:04:58;77675.78;;;-3.47;44.78
13954;BME280;7049;49.444;8.522;2022-07-18T04:10:01;77690.44;;;-3.47;45.00
13954;BME280;7049;49.444;8.522;2022-07-18T04:15:03;77690.44;;;-3.47;45.38
13954;BME280;7049;49.444;8.522;2022-07-18T04:20:05;77696.72;;;-3.47;45.56
13954;BME280;7049;49.444;8.522;2022-07-18T04:25:09;77696.72;;;-3.47;45.16
13954;BME280;7049;49.444;8.522;2022-07-18T04:30:11;77692.53;;;-3.47;45.97
13954;BME280;7049;49.444;8.522;2022-07-18T04:35:12;77690.44;;;-3.47;46.88
13954;BME280;7049;49.444;8.522;2022-07-18T04:40:16;77675.78;;;-3.47;47.57
13954;BME280;7049;49.444;8.522;2022-07-18T04:45:17;77667.41;;;-3.47;47.64
13954;BME280;7049;49.444;8.522;2022-07-18T04:50:22;77659.03;;;-3.47;48.05
13954;BME280;7049;49.444;8.522;2022-07-18T04:55:26;77656.94;;;-3.47;48.83
13954;BME280;7049;49.444;8.522;2022-07-18T05:00:28;77652.78;;;-3.47;48.86
13954;BME280;7049;49.444;8.522;2022-07-18T05:05:30;77650.69;;;-3.47;49.85
13954;BME280;7049;49.444;8.522;2022-07-18T05:10:33;77646.50;;;-3.47;49.90
13954;BME280;7049;49.444;8.522;2022-07-18T05:15:35;77633.94;;;-3.47;50.20
13954;BME280;7049;49.444;8.522;2022-07-18T05:20:36;77623.47;;;-3.47;50.09
13954;BME280;7049;49.444;8.522;2022-07-18T05:25:40;77602.56;;;-3.47;50.23
13954;BME280;7049;49.444;8.522;2022-07-18T05:30:41;77598.38;;;-3.47;49.83
13954;BME280;7049;49.444;8.522;2022-07-18T05:35:43;77585.81;;;-3.47;49.86
13954;BME280;7049;49.444;8.522;2022-07-18T05:40:46;77575.34;;;-3.47;45.81
13954;BME280;7049;49.444;8.522;2022-07-18T05:45:47;77548.16;;;-3.47;44.91
13954;BME280;7049;49.444;8.522;2022-07-18T05:50:49;77525.13;;;-3.47;44.41
13954;BME280;7049;49.444;8.522;2022-07-18T05:55:51;77500.03;;;-3.47;43.60
13954;BME280;7049;49.444;8.522;2022-07-18T06:00:53;77470.75;;;-3.47;43.29
13954;BME280;7049;49.444;8.522;2022-07-18T06:05:54;77454.00;;;-3.47;43.25
13954;BME280;7049;49.444;8.522;2022-07-18T06:10:57;77424.72;;;-3.47;43.04
13954;BME280;7049;49.444;8.522;2022-07-18T06:15:59;77391.22;;;-3.47;41.80
13954;BME280;7049;49.444;8.522;2022-07-18T06:21:00;77366.13;;;-3.47;41.33
13954;BME280;7049;49.444;8.522;2022-07-18T06:26:03;77334.75;;;-3.47;40.59
13954;BME280;7049;49.444;8.522;2022-07-18T06:31:05;77295.00;;;-3.47;39.96
13954;BME280;7049;49.444;8.522;2022-07-18T06:36:06;77259.44;;;-3.47;39.30
13954;BME280;7049;49.444;8.522;2022-07-18T06:41:10;77230.13;;;-3.47;39.22
13954;BME280;7049;49.444;8.522;2022-07-18T06:46:11;77198.75;;;-3.47;38.38
13954;BME280;7049;49.444;8.522;2022-07-18T06:51:13;77152.72;;;-3.47;38.33
13954;BME280;7049;49.444;8.522;2022-07-18T06:56:15;77119.25;;;-3.47;37.43
13954;BME280;7049;49.444;8.522;2022-07-18T07:01:18;77079.50;;;-3.47;36.65
13954;BME280;7049;49.444;8.522;2022-07-18T07:06:20;77035.56;;;-3.47;36.49
13954;BME280;7049;49.444;8.522;2022-07-18T07:11:23;76997.91;;;-3.47;35.67
13954;BME280;7049;49.444;8.522;2022-07-18T07:16:24;76954.00;;;-3.47;34.43
13954;BME280;7049;49.444;8.522;2022-07-18T07:21:26;76914.25;;;-3.47;34.20
13954;BME280;7049;49.444;8.522;2022-07-18T07:26:28;76872.41;;;-3.47;33.31
13954;BME280;7049;49.444;8.522;2022-07-18T07:31:30;76838.94;;;-3.47;32.80
13954;BME280;7049;49.444;8.522;2022-07-18T07:36:31;76801.28;;;-3.47;32.75
13954;BME280;7049;49.444;8.522;2022-07-18T07:41:34;76751.06;;;-3.47;32.31
13954;BME280;7049;49.444;8.522;2022-07-18T07:46:36;76719.69;;;-3.47;31.87
13954;BME280;7049;49.444;8.522;2022-07-18T07:51:37;76671.59;;;-3.47;31.00
13954;BME280;7049;49.444;8.522;2022-07-18T07:56:40;76625.56;;;-3.47;30.44
13954;BME280;7049;49.444;8.522;2022-07-18T08:01:41;76590.00;;;-3.47;28.90
13954;BME280;7049;49.444;8.522;2022-07-18T08:06:43;76556.53;;;-3.47;28.60
13954;BME280;7049;49.444;8.522;2022-07-18T08:11:46;76504.25;;;-3.47;28.88
13954;BME280;7049;49.444;8.522;2022-07-18T08:16:47;76445.69;;;-3.47;29.03
13954;BME280;7049;49.444;8.522;2022-07-18T08:21:49;76410.13;;;-3.47;28.99
13954;BME280;7049;49.444;8.522;2022-07-18T08:26:51;76372.47;;;-3.47;28.06
13954;BME280;7049;49.444;8.522;2022-07-18T08:31:53;76318.09;;;-3.47;27.92
13954;BME280;7049;49.444;8.522;2022-07-18T08:36:54;76278.34;;;-3.47;28.30
13954;BME280;7049;49.444;8.522;2022-07-18T08:42:00;76230.25;;;-3.47;27.58
13954;BME280;7049;49.444;8.522;2022-07-18T08:47:03;76194.69;;;-3.47;25.70
13954;BME280;7049;49.444;8.522;2022-07-18T08:52:05;76157.06;;;-3.47;25.18
13954;BME280;7049;49.444;8.522;2022-07-18T08:57:08;76102.69;;;-3.47;26.80
13954;BME280;7049;49.444;8.522;2022-07-18T09:02:10;76044.13;;;-3.47;26.38
13954;BME280;7049;49.444;8.522;2022-07-18T09:07:23;76019.03;;;-3.47;23.99
13954;BME280;7049;49.444;8.522;2022-07-18T09:12:27;75983.47;;;-3.47;22.22
13954;BME280;7049;49.444;8.522;2022-07-18T09:17:33;75973.00;;;-3.47;22.09
13954;BME280;7049;49.444;8.522;2022-07-18T09:22:36;75947.91;;;-3.47;22.33
13954;BME280;7049;49.444;8.522;2022-07-18T09:27:42;75889.34;;;-3.47;22.63
13954;BME280;7049;49.444;8.522;2022-07-18T09:32:45;75868.44;;;-3.47;21.66
13954;BME280;7049;49.444;8.522;2022-07-18T09:37:55;75830.81;;;-3.47;22.09
13954;BME280;7049;49.444;8.522;2022-07-18T09:42:59;75788.97;;;-3.47;21.90
13954;BME280;7049;49.444;8.522;2022-07-18T09:48:05;75751.34;;;-3.47;21.98
13954;BME280;7049;49.444;8.522;2022-07-18T09:53:11;75734.59;;;-3.47;21.98
13954;BME280;7049;49.444;8.522;2022-07-18T09:58:16;75684.41;;;-3.47;21.70
13954;BME280;7049;49.444;8.522;2022-07-18T10:03:18;75655.13;;;-3.47;20.36
13954;BME280;7049;49.444;8.522;2022-07-18T10:08:22;75650.97;;;-3.47;20.40
13954;BME280;7049;49.444;8.522;2022-07-18T10:13:26;75623.78;;;-3.47;20.07
13954;BME280;7049;49.444;8.522;2022-07-18T10:18:30;75596.59;;;-3.47;20.75
13954;BME280;7049;49.444;8.522;2022-07-18T10:23:34;75588.22;;;-3.47;21.04
13954;BME280;7049;49.444;8.522;2022-07-18T10:29:09;75563.13;;;-3.47;20.42
13954;BME280;7049;49.444;8.522;2022-07-18T10:34:13;75525.50;;;-3.47;20.89
13954;BME280;7049;49.444;8.522;2022-07-18T10:39:16;75487.84;;;-3.47;19.92
13954;BME280;7049;49.444;8.522;2022-07-18T10:44:34;75475.31;;;-3.47;19.31
13954;BME280;7049;49.444;8.522;2022-07-18T10:50:00;75487.84;;;-3.47;19.68
13954;BME280;7049;49.444;8.522;2022-07-18T10:55:26;75477.41;;;-3.47;19.28
13954;BME280;7049;49.444;8.522;2022-07-18T11:00:34;75433.47;;;-3.47;19.51
13954;BME280;7049;49.444;8.522;2022-07-18T11:05:42;75412.56;;;-3.47;20.66
13954;BME280;7049;49.444;8.522;2022-07-18T11:11:06;75381.22;;;-3.47;21.20
13954;BME280;7049;49.444;8.522;2022-07-18T11:16:12;75366.56;;;-3.47;20.08
13954;BME280;7049;49.444;8.522;2022-07-18T11:21:16;75337.28;;;-3.47;20.34
13954;BME280;7049;49.444;8.522;2022-07-18T11:26:19;75374.94;;;-3.47;18.50
13954;BME280;7049;49.444;8.522;2022-07-18T11:31:22;75383.31;;;-3.47;18.52
13954;BME280;7049;49.444;8.522;2022-07-18T11:36:29;75385.38;;;-3.47;18.64
13954;BME280;7049;49.444;8.522;2022-07-18T11:41:31;75374.94;;;-3.47;19.11
13954;BME280;7049;49.444;8.522;2022-07-18T11:46:34;75358.22;;;-3.47;19.48
13954;BME280;7049;49.444;8.522;2022-07-18T11:51:39;75345.66;;;-3.47;18.98
13954;BME280;7049;49.444;8.522;2022-07-18T11:56:45;75316.38;;;-3.47;18.75
13954;BME280;7049;49.444;8.522;2022-07-18T12:01:49;75303.84;;;-3.47;18.79
13954;BME280;7049;49.444;8.522;2022-07-18T12:07:12;75282.94;;;-3.47;19.72
13954;BME280;7049;49.444;8.522;2022-07-18T12:12:15;75255.75;;;-3.47;18.52
13954;BME280;7049;49.444;8.522;2022-07-18T12:17:18;75232.75;;;-3.47;18.54
13954;BME280;7049;49.444;8.522;2022-07-18T12:22:20;75211.84;;;-3.47;18.88
13954;BME280;7049;49.444;8.522;2022-07-18T12:27:23;75205.56;;;-3.47;18.30
13954;BME280;7049;49.444;8.522;2022-07-18T12:32:26;75216.03;;;-3.47;17.98
13954;BME280;7049;49.444;8.522;2022-07-18T12:37:29;75218.13;;;-3.47;19.57
13954;BME280;7049;49.444;8.522;2022-07-18T12:42:33;75207.66;;;-3.47;19.24
13954;BME280;7049;49.444;8.522;2022-07-18T12:47:36;75190.94;;;-3.47;19.89
13954;BME280;7049;49.444;8.522;2022-07-18T12:52:38;75182.56;;;-3.47;18.72
13954;BME280;7049;49.444;8.522;2022-07-18T12:57:40;75157.47;;;-3.47;19.34
13954;BME280;7049;49.444;8.522;2022-07-18T13:02:43;75124.03;;;-3.47;19.12
13954;BME280;7049;49.444;8.522;2022-07-18T13:07:45;75126.13;;;-3.47;18.20
13954;BME280;7049;49.444;8.522;2022-07-18T13:12:46;75134.47;;;-3.47;18.38
13954;BME280;7049;49.444;8.522;2022-07-18T13:17:49;75132.38;;;-3.47;18.10
13954;BME280;7049;49.444;8.522;2022-07-18T13:22:51;75119.84;;;-3.47;17.75
13954;BME280;7049;49.444;8.522;2022-07-18T13:27:53;75124.03;;;-3.47;18.35
13954;BME280;7049;49.444;8.522;2022-07-18T13:32:55;75098.94;;;-3.47;18.57
13954;BME280;7049;49.444;8.522;2022-07-18T13:37:57;75086.38;;;-3.47;18.34
13954;BME280;7049;49.444;8.522;2022-07-18T13:42:58;75088.47;;;-3.47;18.43
13954;BME280;7049;49.444;8.522;2022-07-18T13:48:01;75084.31;;;-3.47;18.48
13954;BME280;7049;49.444;8.522;2022-07-18T13:53:03;75069.66;;;-3.47;18.85
13954;BME280;7049;49.444;8.522;2022-07-18T13:58:04;75055.03;;;-3.47;18.74
13954;BME280;7049;49.444;8.522;2022-07-18T14:03:07;75044.56;;;-3.47;19.15
13954;BME280;7049;49.444;8.522;2022-07-18T14:08:08;75025.75;;;-3.47;18.99
13954;BME280;7049;49.444;8.522;2022-07-18T14:13:10;75032.03;;;-3.47;18.18
13954;BME280;7049;49.444;8.522;2022-07-18T14:18:13;75042.47;;;-3.47;18.29
13954;BME280;7049;49.444;8.522;2022-07-18T14:23:14;75019.47;;;-3.47;19.11
13954;BME280;7049;49.444;8.522;2022-07-18T14:28:16;74969.31;;;-3.47;17.77
13954;BME280;7049;49.444;8.522;2022-07-18T14:33:19;74952.59;;;-3.47;17.78
13954;BME280;7049;49.444;8.522;2022-07-18T14:38:20;74948.41;;;-3.47;17.88
13954;BME280;7049;49.444;8.522;2022-07-18T14:43:22;74940.03;;;-3.47;17.95
13954;BME280;7049;49.444;8.522;2022-07-18T14:48:24;74929.59;;;-3.47;17.95
13954;BME280;7049;49.444;8.522;2022-07-18T14:53:26;74914.94;;;-3.47;18.59
13954;BME280;7049;49.444;8.522;2022-07-18T14:58:28;74902.41;;;-3.47;18.67
13954;BME280;7049;49.444;8.522;2022-07-18T15:03:30;74885.69;;;-3.47;19.29
13954;BME280;7049;49.444;8.522;2022-07-18T15:08:32;74881.50;;;-3.47;19.12
13954;BME280;7049;49.444;8.522;2022-07-18T15:13:33;74868.97;;;-3.47;19.56
13954;BME280;7049;49.444;8.522;2022-07-18T15:18:36;74873.13;;;-3.47;19.11
13954;BME280;7049;49.444;8.522;2022-07-18T15:23:38;74871.03;;;-3.47;18.63
13954;BME280;7049;49.444;8.522;2022-07-18T15:28:39;74900.31;;;-3.47;18.07
13954;BME280;7049;49.444;8.522;2022-07-18T15:33:42;74900.31;;;-3.47;17.93
13954;BME280;7049;49.444;8.522;2022-07-18T15:38:44;74921.22;;;-3.47;18.21
13954;BME280;7049;49.444;8.522;2022-07-18T15:43:46;74950.50;;;-3.47;18.08
13954;BME280;7049;49.444;8.522;2022-07-18T15:48:49;74942.13;;;-3.47;18.70
13954;BME280;7049;49.444;8.522;2022-07-18T15:53:50;74942.13;;;-3.47;19.05
13954;BME280;7049;49.444;8.522;2022-07-18T15:58:52;74954.66;;;-3.47;18.42
13954;BME280;7049;49.444;8.522;2022-07-18T16:03:55;74917.03;;;-3.47;19.00
13954;BME280;7049;49.444;8.522;2022-07-18T16:08:56;74898.22;;;-3.47;18.71
13954;BME280;7049;49.444;8.522;2022-07-18T16:13:59;74887.78;;;-3.47;19.09
13954;BME280;7049;49.444;8.522;2022-07-18T16:19:02;74868.97;;;-3.47;19.38
13954;BME280;7049;49.444;8.522;2022-07-18T16:24:04;74852.22;;;-3.47;19.42
13954;BME280;7049;49.444;8.522;2022-07-18T16:29:06;74860.59;;;-3.47;19.17
13954;BME280;7049;49.444;8.522;2022-07-18T16:34:08;74866.88;;;-3.47;19.14
13954;BME280;7049;49.444;8.522;2022-07-18T16:39:10;74864.78;;;-3.47;19.31
13954;BME280;7049;49.444;8.522;2022-07-18T16:44:12;74877.31;;;-3.47;19.55
13954;BME280;7049;49.444;8.522;2022-07-18T16:49:15;74887.78;;;-3.47;19.43
13954;BME280;7049;49.444;8.522;2022-07-18T16:54:17;74927.50;;;-3.47;19.18
13954;BME280;7049;49.444;8.522;2022-07-18T16:59:18;74950.50;;;-3.47;19.64
13954;BME280;7049;49.444;8.522;2022-07-18T17:04:22;74956.75;;;-3.47;20.57
13954;BME280;7049;49.444;8.522;2022-07-18T17:09:24;74979.75;;;-3.47;20.89
13954;BME280;7049;49.444;8.522;2022-07-18T17:14:27;75006.94;;;-3.47;20.92
13954;BME280;7049;49.444;8.522;2022-07-18T17:19:30;75046.66;;;-3.47;21.44
13954;BME280;7049;49.444;8.522;2022-07-18T17:24:32;75082.22;;;-3.47;20.96
13954;BME280;7049;49.444;8.522;2022-07-18T17:29:34;75113.56;;;-3.47;22.12
13954;BME280;7049;49.444;8.522;2022-07-18T17:34:38;75151.22;;;-3.47;22.47
13954;BME280;7049;49.444;8.522;2022-07-18T17:39:40;75182.56;;;-3.47;21.79
13954;BME280;7049;49.444;8.522;2022-07-18T17:44:43;75205.56;;;-3.47;21.09
13954;BME280;7049;49.444;8.522;2022-07-18T17:49:46;75243.22;;;-3.47;21.08
13954;BME280;7049;49.444;8.522;2022-07-18T17:54:48;75268.28;;;-3.47;21.66
13954;BME280;7049;49.444;8.522;2022-07-18T17:59:49;75295.47;;;-3.47;21.84
13954;BME280;7049;49.444;8.522;2022-07-18T18:04:52;75318.47;;;-3.47;22.77
13954;BME280;7049;49.444;8.522;2022-07-18T18:09:53;75339.38;;;-3.47;23.38
13954;BME280;7049;49.444;8.522;2022-07-18T18:14:55;75366.56;;;-3.47;23.70
13954;BME280;7049;49.444;8.522;2022-07-18T18:19:58;75383.31;;;-3.47;24.87
13954;BME280;7049;49.444;8.522;2022-07-18T18:24:59;75404.22;;;-3.47;25.79
13954;BME280;7049;49.444;8.522;2022-07-18T18:30:01;75441.84;;;-3.47;26.21
13954;BME280;7049;49.444;8.522;2022-07-18T18:35:05;75479.50;;;-3.47;27.24
13954;BME280;7049;49.444;8.522;2022-07-18T18:40:07;75517.13;;;-3.47;28.31
13954;BME280;7049;49.444;8.522;2022-07-18T18:45:09;75561.03;;;-3.47;28.65
13954;BME280;7049;49.444;8.522;2022-07-18T18:50:12;75596.59;;;-3.47;28.80
13954;BME280;7049;49.444;8.522;2022-07-18T18:55:14;75630.03;;;-3.47;29.17
13954;BME280;7049;49.444;8.522;2022-07-18T19:00:17;75665.59;;;-3.47;29.00
13954;BME280;7049;49.444;8.522;2022-07-18T19:05:21;75692.78;;;-3.47;29.38
13954;BME280;7049;49.444;8.522;2022-07-18T19:10:23;75722.06;;;-3.47;29.40
13954;BME280;7049;49.444;8.522;2022-07-18T19:15:25;75755.50;;;-3.47;29.26
13954;BME280;7049;49.444;8.522;2022-07-18T19:20:28;75791.06;;;-3.47;29.01
13954;BME280;7049;49.444;8.522;2022-07-18T19:25:29;75818.25;;;-3.47;29.08
13954;BME280;7049;49.444;8.522;2022-07-18T19:30:31;75847.53;;;-3.47;29.58
13954;BME280;7049;49.444;8.522;2022-07-18T19:35:33;75878.91;;;-3.47;29.75
13954;BME280;7049;49.444;8.522;2022-07-18T19:40:35;75910.28;;;-3.47;29.94
13954;BME280;7049;49.444;8.522;2022-07-18T19:45:36;75941.63;;;-3.47;30.17
13954;BME280;7049;49.444;8.522;2022-07-18T19:50:40;75970.91;;;-3.47;30.57
13954;BME280;7049;49.444;8.522;2022-07-18T19:55:41;75989.75;;;-3.47;30.19
13954;BME280;7049;49.444;8.522;2022-07-18T20:00:43;76014.84;;;-3.47;30.99
13954;BME280;7049;49.444;8.522;2022-07-18T20:05:46;76035.75;;;-3.47;31.40
13954;BME280;7049;49.444;8.522;2022-07-18T20:10:48;76067.13;;;-3.47;31.23
13954;BME280;7049;49.444;8.522;2022-07-18T20:15:49;76088.03;;;-3.47;30.88
13954;BME280;7049;49.444;8.522;2022-07-18T20:20:52;76111.03;;;-3.47;31.36
13954;BME280;7049;49.444;8.522;2022-07-18T20:25:54;76131.97;;;-3.47;31.33
13954;BME280;7049;49.444;8.522;2022-07-18T20:30:55;76157.06;;;-3.47;31.79
13954;BME280;7049;49.444;8.522;2022-07-18T20:35:58;76180.06;;;-3.47;31.65
13954;BME280;7049;49.444;8.522;2022-07-18T20:40:59;76196.78;;;-3.47;31.78
13954;BME280;7049;49.444;8.522;2022-07-18T20:46:01;76211.44;;;-3.47;32.16
13954;BME280;7049;49.444;8.522;2022-07-18T20:51:04;76234.44;;;-3.47;32.47
13954;BME280;7049;49.444;8.522;2022-07-18T20:56:06;76255.34;;;-3.47;32.57
13954;BME280;7049;49.444;8.522;2022-07-18T21:01:08;76272.09;;;-3.47;32.81
13954;BME280;7049;49.444;8.522;2022-07-18T21:06:11;76286.72;;;-3.47;32.94
13954;BME280;7049;49.444;8.522;2022-07-18T21:11:12;76307.63;;;-3.47;34.04
13954;BME280;7049;49.444;8.522;2022-07-18T21:16:14;76328.56;;;-3.47;34.12
13954;BME280;7049;49.444;8.522;2022-07-18T21:21:17;76343.19;;;-3.47;34.06
13954;BME280;7049;49.444;8.522;2022-07-18T21:26:18;76357.84;;;-3.47;34.11
13954;BME280;7049;49.444;8.522;2022-07-18T21:31:20;76372.47;;;-3.47;34.22
13954;BME280;7049;49.444;8.522;2022-07-18T21:36:23;76387.13;;;-3.47;33.88
13954;BME280;7049;49.444;8.522;2022-07-18T21:41:25;76401.75;;;-3.47;34.86
13954;BME280;7049;49.444;8.522;2022-07-18T21:46:27;76412.22;;;-3.47;35.56
13954;BME280;7049;49.444;8.522;2022-07-18T21:51:30;76428.94;;;-3.47;35.09
13954;BME280;7049;49.444;8.522;2022-07-18T21:56:31;76443.59;;;-3.47;35.08
13954;BME280;7049;49.444;8.522;2022-07-18T22:01:32;76458.25;;;-3.47;35.20
13954;BME280;7049;49.444;8.522;2022-07-18T22:06:35;76470.78;;;-3.47;35.62
13954;BME280;7049;49.444;8.522;2022-07-18T22:11:37;76487.53;;;-3.47;35.39
13954;BME280;7049;49.444;8.522;2022-07-18T22:16:43;76506.34;;;-3.47;35.52
13954;BME280;7049;49.444;8.522;2022-07-18T22:21:46;76523.06;;;-3.47;35.47
13954;BME280;7049;49.444;8.522;2022-07-18T22:26:47;76533.53;;;-3.47;36.05
13954;BME280;7049;49.444;8.522;2022-07-18T22:31:49;76550.28;;;-3.47;36.42
13954;BME280;7049;49.444;8.522;2022-07-18T22:36:51;76560.72;;;-3.47;36.27
13954;BME280;7049;49.444;8.522;2022-07-18T22:41:53;76575.38;;;-3.47;36.39
13954;BME280;7049;49.444;8.522;2022-07-18T22:46:54;76577.47;;;-3.47;36.52
13954;BME280;7049;49.444;8.522;2022-07-18T22:51:58;76579.56;;;-3.47;36.94
13954;BME280;7049;49.444;8.522;2022-07-18T22:57:00;76590.00;;;-3.47;37.80
13954;BME280;7049;49.444;8.522;2022-07-18T23:02:05;76598.38;;;-3.47;38.61
13954;BME280;7049;49.444;8.522;2022-07-18T23:07:08;76610.94;;;-3.47;38.82
13954;BME280;7049;49.444;8.522;2022-07-18T23:12:09;76608.84;;;-3.47;39.43
13954;BME280;7049;49.444;8.522;2022-07-18T23:17:11;76617.19;;;-3.47;40.29
13954;BME280;7049;49.444;8.522;2022-07-18T23:22:14;76625.56;;;-3.47;40.70
13954;BME280;7049;49.444;8.522;2022-07-18T23:27:15;76642.31;;;-3.47;40.83
13954;BME280;7049;49.444;8.522;2022-07-18T23:32:16;76654.84;;;-3.47;41.15
13954;BME280;7049;49.444;8.522;2022-07-18T23:37:19;76659.03;;;-3.47;41.25
13954;BME280;7049;49.444;8.522;2022-07-18T23:42:21;76665.31;;;-3.47;41.00
13954;BME280;7049;49.444;8.522;2022-07-18T23:47:23;76677.88;;;-3.47;41.10
13954;BME280;7049;49.444;8.522;2022-07-18T23:52:26;76692.50;;;-3.47;40.95
13954;BME280;7049;49.444;8.522;2022-07-18T23:57:27;76698.78;;;-3.47;41.59
